createdAt,value
2017-04-17T00:00:39.803Z,75.30
2017-04-17T00:01:39.109Z,75.50
2017-04-17T00:02:38.393Z,75.50
2017-04-17T00:03:37.610Z,75.70
2017-04-17T00:04:36.922Z,75.70
2017-04-17T00:05:36.158Z,75.70
2017-04-17T00:06:35.443Z,76.00
2017-04-17T00:07:34.646Z,76.20
2017-04-17T00:08:33.901Z,76.40
2017-04-17T00:09:33.866Z,76.60
2017-04-17T00:10:33.184Z,76.80
2017-04-17T00:11:32.428Z,76.80
2017-04-17T00:12:31.642Z,76.80
2017-04-17T00:13:30.857Z,77.10
2017-04-17T00:14:30.077Z,77.10
2017-04-17T00:15:29.293Z,77.10
2017-04-17T00:16:29.564Z,77.10
2017-04-17T00:17:28.785Z,77.10
2017-04-17T00:18:28.009Z,77.20
2017-04-17T00:19:27.233Z,77.30
2017-04-17T00:20:26.445Z,77.50
2017-04-17T00:21:25.673Z,77.60
2017-04-17T00:22:24.920Z,77.70
2017-04-17T00:23:24.143Z,77.60
2017-04-17T00:24:23.373Z,77.70
2017-04-17T00:25:23.324Z,77.60
2017-04-17T00:26:22.552Z,77.80
2017-04-17T00:27:21.791Z,77.70
2017-04-17T00:28:21.016Z,77.50
2017-04-17T00:29:20.224Z,77.80
2017-04-17T00:30:19.518Z,77.60
2017-04-17T00:31:18.713Z,77.60
2017-04-17T00:32:18.684Z,77.90
2017-04-17T00:33:17.904Z,78.00
2017-04-17T00:34:17.367Z,78.20
2017-04-17T00:35:16.613Z,78.10
2017-04-17T00:36:15.921Z,78.20
2017-04-17T00:37:15.142Z,78.20
2017-04-17T00:38:14.343Z,78.10
2017-04-17T00:39:13.560Z,78.20
2017-04-17T00:40:12.816Z,78.10
2017-04-17T00:41:12.037Z,78.00
2017-04-17T00:42:12.081Z,78.20
2017-04-17T00:43:11.341Z,78.20
2017-04-17T00:44:10.556Z,78.60
2017-04-17T00:45:09.811Z,78.50
2017-04-17T00:46:09.088Z,78.60
2017-04-17T00:47:09.073Z,78.70
2017-04-17T00:48:08.289Z,78.50
2017-04-17T00:49:08.272Z,78.80
2017-04-17T00:50:07.523Z,78.40
2017-04-17T00:51:06.843Z,78.50
2017-04-17T00:52:06.336Z,78.70
2017-04-17T00:53:05.559Z,78.70
2017-04-17T00:54:04.765Z,78.70
2017-04-17T00:55:03.989Z,78.90
2017-04-17T00:56:03.214Z,78.90
2017-04-17T00:57:02.448Z,79.00
2017-04-17T00:58:01.693Z,79.10
2017-04-17T00:59:00.912Z,78.90
2017-04-17T01:00:00.125Z,79.10
2017-04-17T01:00:59.382Z,79.00
2017-04-17T01:01:58.689Z,79.70
2017-04-17T01:02:57.916Z,79.20
2017-04-17T01:03:57.202Z,79.20
2017-04-17T01:04:56.435Z,79.10
2017-04-17T01:05:56.392Z,79.40
2017-04-17T01:06:55.589Z,79.50
2017-04-17T01:07:54.805Z,79.90
2017-04-17T01:08:54.028Z,80.00
2017-04-17T01:09:53.665Z,80.40
2017-04-17T01:10:52.886Z,80.80
2017-04-17T01:11:52.104Z,80.70
2017-04-17T01:12:51.334Z,81.30
2017-04-17T01:13:50.581Z,81.30
2017-04-17T01:14:49.813Z,81.30
2017-04-17T01:15:49.073Z,81.30
2017-04-17T01:16:48.293Z,81.30
2017-04-17T01:17:47.494Z,81.30
2017-04-17T01:18:46.717Z,81.30
2017-04-17T01:19:45.985Z,81.30
2017-04-17T01:20:45.225Z,81.40
2017-04-17T01:21:44.849Z,81.30
2017-04-17T01:22:45.229Z,81.30
2017-04-17T01:23:44.530Z,81.30
2017-04-17T01:24:43.753Z,81.30
2017-04-17T01:25:42.983Z,81.30
2017-04-17T01:26:42.204Z,82.00
2017-04-17T01:27:41.471Z,81.30
2017-04-17T01:28:40.747Z,81.20
2017-04-17T01:29:39.963Z,80.90
2017-04-17T01:30:39.192Z,81.00
2017-04-17T01:31:38.429Z,81.00
2017-04-17T01:32:37.715Z,81.00
2017-04-17T01:33:37.296Z,80.80
2017-04-17T01:34:36.772Z,80.60
2017-04-17T01:35:36.001Z,80.80
2017-04-17T01:36:35.370Z,80.80
2017-04-17T01:37:34.632Z,80.60
2017-04-17T01:38:33.908Z,80.40
2017-04-17T01:39:33.140Z,80.50
2017-04-17T01:40:33.117Z,80.30
2017-04-17T01:41:32.336Z,80.30
2017-04-17T01:42:31.584Z,80.50
2017-04-17T01:43:30.877Z,80.40
2017-04-17T01:44:30.089Z,80.70
2017-04-17T01:45:29.569Z,80.60
2017-04-17T01:46:28.795Z,80.80
2017-04-17T01:47:28.740Z,80.60
2017-04-17T01:48:27.965Z,80.60
2017-04-17T01:49:27.202Z,80.50
2017-04-17T01:50:26.409Z,80.40
2017-04-17T01:51:25.642Z,80.50
2017-04-17T01:52:25.626Z,80.40
2017-04-17T01:53:24.861Z,80.20
2017-04-17T01:54:24.066Z,80.60
2017-04-17T01:55:23.280Z,80.20
2017-04-17T01:56:22.520Z,79.90
2017-04-17T01:57:22.008Z,80.00
2017-04-17T01:58:21.237Z,79.70
2017-04-17T01:59:20.450Z,79.60
2017-04-17T02:00:19.669Z,79.60
2017-04-17T02:01:19.721Z,79.50
2017-04-17T02:02:18.938Z,80.30
2017-04-17T02:03:18.187Z,79.80
2017-04-17T02:04:17.469Z,79.80
2017-04-17T02:05:16.701Z,79.60
2017-04-17T02:06:15.970Z,79.60
2017-04-17T02:07:15.174Z,79.70
2017-04-17T02:08:14.397Z,79.70
2017-04-17T02:09:13.860Z,79.70
2017-04-17T02:10:13.093Z,79.80
2017-04-17T02:11:13.141Z,79.80
2017-04-17T02:12:12.381Z,80.00
2017-04-17T02:13:12.436Z,80.60
2017-04-17T02:14:11.652Z,80.20
2017-04-17T02:15:10.904Z,80.00
2017-04-17T02:16:10.125Z,79.60
2017-04-17T02:17:09.352Z,79.50
2017-04-17T02:18:09.325Z,79.50
2017-04-17T02:19:08.636Z,79.30
2017-04-17T02:20:07.887Z,79.40
2017-04-17T02:21:07.405Z,79.40
2017-04-17T02:22:06.649Z,80.10
2017-04-17T02:23:05.888Z,79.50
2017-04-17T02:24:05.109Z,79.40
2017-04-17T02:25:04.357Z,79.70
2017-04-17T02:26:04.362Z,79.40
2017-04-17T02:27:03.604Z,79.50
2017-04-17T02:28:02.846Z,79.90
2017-04-17T02:29:02.064Z,79.20
2017-04-17T02:30:01.294Z,79.30
2017-04-17T02:31:00.569Z,79.50
2017-04-17T02:31:59.780Z,79.60
2017-04-17T02:32:59.245Z,79.10
2017-04-17T02:33:58.496Z,79.50
2017-04-17T02:34:57.778Z,79.30
2017-04-17T02:35:57.016Z,79.30
2017-04-17T02:36:56.224Z,80.00
2017-04-17T02:37:55.441Z,79.20
2017-04-17T02:38:54.705Z,79.00
2017-04-17T02:39:53.911Z,78.90
2017-04-17T02:40:53.128Z,79.00
2017-04-17T02:41:52.349Z,79.00
2017-04-17T02:42:51.585Z,79.30
2017-04-17T02:43:50.785Z,79.30
2017-04-17T02:44:50.244Z,79.40
2017-04-17T02:45:49.470Z,79.40
2017-04-17T02:46:48.697Z,79.70
2017-04-17T02:47:47.920Z,79.80
2017-04-17T02:48:47.143Z,79.60
2017-04-17T02:49:46.366Z,79.70
2017-04-17T02:50:45.617Z,79.30
2017-04-17T02:51:44.829Z,79.80
2017-04-17T02:52:44.857Z,79.90
2017-04-17T02:53:44.092Z,79.70
2017-04-17T02:54:43.309Z,79.80
2017-04-17T02:55:42.544Z,79.90
2017-04-17T02:56:41.790Z,79.70
2017-04-17T02:57:41.073Z,80.00
2017-04-17T02:58:40.292Z,80.00
2017-04-17T02:59:39.531Z,80.00
2017-04-17T03:00:38.748Z,80.10
2017-04-17T03:01:38.713Z,80.10
2017-04-17T03:02:38.329Z,79.70
2017-04-17T03:03:37.569Z,79.90
2017-04-17T03:04:36.780Z,80.00
2017-04-17T03:05:36.008Z,80.10
2017-04-17T03:06:35.201Z,80.30
2017-04-17T03:07:34.421Z,80.20
2017-04-17T03:08:33.661Z,80.20
2017-04-17T03:09:32.890Z,80.20
2017-04-17T03:10:32.092Z,80.40
2017-04-17T03:11:31.327Z,80.10
2017-04-17T03:12:30.532Z,80.20
2017-04-17T03:13:29.756Z,80.40
2017-04-17T03:14:29.010Z,80.60
2017-04-17T03:15:28.241Z,80.50
2017-04-17T03:16:27.465Z,80.30
2017-04-17T03:17:26.689Z,80.80
2017-04-17T03:18:26.648Z,80.90
2017-04-17T03:19:25.888Z,80.70
2017-04-17T03:20:26.173Z,80.60
2017-04-17T03:21:25.418Z,80.80
2017-04-17T03:22:24.646Z,81.00
2017-04-17T03:23:23.926Z,81.00
2017-04-17T03:24:23.149Z,81.20
2017-04-17T03:25:23.144Z,81.40
2017-04-17T03:26:22.413Z,81.00
2017-04-17T03:27:22.384Z,81.10
2017-04-17T03:28:21.608Z,80.60
2017-04-17T03:29:20.823Z,80.80
2017-04-17T03:30:20.050Z,80.80
2017-04-17T03:31:19.253Z,80.90
2017-04-17T03:32:18.787Z,80.80
2017-04-17T03:33:18.025Z,80.80
2017-04-17T03:34:17.260Z,81.00
2017-04-17T03:35:16.468Z,80.90
2017-04-17T03:36:15.693Z,81.00
2017-04-17T03:37:14.895Z,80.90
2017-04-17T03:38:14.157Z,81.20
2017-04-17T03:39:14.116Z,80.80
2017-04-17T03:40:13.333Z,80.90
2017-04-17T03:41:12.581Z,81.00
2017-04-17T03:42:11.790Z,81.00
2017-04-17T03:43:11.025Z,81.70
2017-04-17T03:44:10.577Z,80.90
2017-04-17T03:45:09.792Z,81.20
2017-04-17T03:46:09.749Z,81.30
2017-04-17T03:47:08.969Z,80.60
2017-04-17T03:48:08.198Z,80.90
2017-04-17T03:49:07.417Z,81.00
2017-04-17T03:50:06.665Z,81.00
2017-04-17T03:51:06.625Z,81.20
2017-04-17T03:52:05.848Z,81.70
2017-04-17T03:53:05.061Z,81.90
2017-04-17T03:54:04.310Z,81.80
2017-04-17T03:55:03.525Z,81.70
2017-04-17T03:56:03.508Z,81.70
2017-04-17T03:57:02.720Z,81.80
2017-04-17T03:58:02.668Z,81.80
2017-04-17T03:59:01.884Z,81.80
2017-04-17T04:00:01.102Z,81.80
2017-04-17T04:01:01.109Z,81.70
2017-04-17T04:02:01.392Z,81.70
2017-04-17T04:03:00.629Z,81.90
2017-04-17T04:03:59.870Z,82.10
2017-04-17T04:04:59.125Z,82.00
2017-04-17T04:05:58.345Z,82.20
2017-04-17T04:06:57.581Z,82.50
2017-04-17T04:07:56.840Z,82.50
2017-04-17T04:08:56.060Z,82.60
2017-04-17T04:09:55.291Z,83.00
2017-04-17T04:10:54.508Z,83.50
2017-04-17T04:11:53.720Z,83.80
2017-04-17T04:12:53.682Z,83.50
2017-04-17T04:13:53.196Z,83.40
2017-04-17T04:14:52.413Z,83.60
2017-04-17T04:15:52.397Z,83.80
2017-04-17T04:16:51.615Z,83.70
2017-04-17T04:17:50.830Z,83.90
2017-04-17T04:18:50.073Z,84.00
2017-04-17T04:19:49.338Z,83.90
2017-04-17T04:20:48.573Z,83.80
2017-04-17T04:21:47.783Z,83.40
2017-04-17T04:22:47.074Z,83.10
2017-04-17T04:23:46.277Z,83.40
2017-04-17T04:24:45.488Z,83.40
2017-04-17T04:25:44.971Z,83.40
2017-04-17T04:26:44.936Z,83.20
2017-04-17T04:27:44.169Z,83.20
2017-04-17T04:28:43.403Z,83.40
2017-04-17T04:29:43.361Z,83.30
2017-04-17T04:30:42.586Z,83.00
2017-04-17T04:31:42.629Z,83.00
2017-04-17T04:32:41.844Z,82.60
2017-04-17T04:33:41.108Z,82.60
2017-04-17T04:34:40.329Z,82.40
2017-04-17T04:35:39.543Z,82.00
2017-04-17T04:36:38.769Z,81.70
2017-04-17T04:37:38.008Z,81.70
2017-04-17T04:38:37.216Z,81.70
2017-04-17T04:39:36.456Z,82.10
2017-04-17T04:40:35.672Z,82.10
2017-04-17T04:41:34.893Z,82.20
2017-04-17T04:42:34.839Z,81.80
2017-04-17T04:43:34.093Z,81.80
2017-04-17T04:44:34.067Z,81.90
2017-04-17T04:45:33.283Z,81.70
2017-04-17T04:46:33.314Z,81.10
2017-04-17T04:47:32.552Z,80.80
2017-04-17T04:48:31.769Z,80.50
2017-04-17T04:49:31.976Z,80.30
2017-04-17T04:50:31.197Z,80.10
2017-04-17T04:51:30.426Z,79.70
2017-04-17T04:52:29.633Z,79.30
2017-04-17T04:53:28.836Z,79.00
2017-04-17T04:54:28.826Z,78.50
2017-04-17T04:55:28.075Z,78.30
2017-04-17T04:56:27.296Z,78.10
2017-04-17T04:57:26.547Z,77.80
2017-04-17T04:58:25.770Z,77.50
2017-04-17T04:59:24.984Z,77.40
2017-04-17T05:00:24.954Z,77.40
2017-04-17T05:01:24.242Z,77.10
2017-04-17T05:02:23.444Z,76.80
2017-04-17T05:03:22.668Z,76.50
2017-04-17T05:04:22.637Z,76.50
2017-04-17T05:05:21.861Z,76.00
2017-04-17T05:06:21.833Z,75.80
2017-04-17T05:07:21.333Z,75.30
2017-04-17T05:08:20.561Z,75.10
2017-04-17T05:09:20.516Z,74.60
2017-04-17T05:10:19.748Z,74.00
2017-04-17T05:11:19.709Z,73.90
2017-04-17T05:12:18.949Z,74.00
2017-04-17T05:13:18.933Z,73.20
2017-04-17T05:14:18.153Z,72.30
2017-04-17T05:15:17.386Z,72.80
2017-04-17T05:16:16.632Z,71.30
2017-04-17T05:17:15.856Z,71.20
2017-04-17T05:18:15.086Z,69.90
2017-04-17T05:19:15.082Z,70.20
2017-04-17T05:20:14.300Z,69.50
2017-04-17T05:21:13.521Z,69.20
2017-04-17T05:22:12.756Z,68.90
2017-04-17T05:23:11.985Z,68.70
2017-04-17T05:24:11.196Z,67.80
2017-04-17T05:25:10.657Z,67.60
2017-04-17T05:26:09.900Z,66.70
2017-04-17T05:27:09.144Z,66.20
2017-04-17T05:28:08.364Z,65.70
2017-04-17T05:29:07.593Z,66.30
2017-04-17T05:30:07.563Z,66.50
2017-04-17T05:31:06.805Z,66.80
2017-04-17T05:32:06.070Z,67.00
2017-04-17T05:33:05.288Z,67.20
2017-04-17T05:34:04.509Z,67.60
2017-04-17T05:35:03.780Z,67.00
2017-04-17T05:36:03.004Z,66.60
2017-04-17T05:37:02.505Z,66.60
2017-04-17T05:38:01.738Z,66.70
2017-04-17T05:39:00.962Z,65.70
2017-04-17T05:40:00.182Z,65.30
2017-04-17T05:40:59.413Z,65.10
2017-04-17T05:41:58.626Z,65.70
2017-04-17T05:42:57.866Z,65.70
2017-04-17T05:43:57.081Z,65.60
2017-04-17T05:44:56.314Z,65.50
2017-04-17T05:45:55.678Z,66.20
2017-04-17T05:46:54.892Z,66.00
2017-04-17T05:47:54.101Z,66.40
2017-04-17T05:48:53.584Z,67.20
2017-04-17T05:49:52.800Z,66.60
2017-04-17T05:50:52.761Z,64.80
2017-04-17T05:51:52.036Z,58.90
2017-04-17T05:52:51.253Z,53.30
2017-04-17T05:53:50.492Z,48.90
2017-04-17T05:54:49.750Z,45.20
2017-04-17T05:55:48.969Z,41.00
2017-04-17T05:56:48.248Z,37.50
2017-04-17T05:57:48.212Z,35.50
2017-04-17T05:58:47.447Z,33.40
2017-04-17T05:59:47.414Z,31.40
2017-04-17T06:00:46.909Z,30.30
2017-04-17T06:01:46.864Z,31.50
2017-04-17T06:02:46.076Z,32.30
2017-04-17T06:03:45.292Z,30.40
2017-04-17T06:04:44.518Z,29.90
2017-04-17T06:05:44.485Z,30.80
2017-04-17T06:06:43.742Z,32.10
2017-04-17T06:07:42.976Z,32.60
2017-04-17T06:08:42.189Z,34.30
2017-04-17T06:09:42.169Z,35.70
2017-04-17T06:10:41.384Z,38.60
2017-04-17T06:11:40.657Z,41.10
2017-04-17T06:12:40.143Z,43.80
2017-04-17T06:13:39.369Z,45.50
2017-04-17T06:14:39.345Z,47.80
2017-04-17T06:15:38.572Z,49.00
2017-04-17T06:16:37.788Z,51.50
2017-04-17T06:17:37.001Z,52.90
2017-04-17T06:18:36.257Z,53.60
2017-04-17T06:19:35.692Z,54.90
2017-04-17T06:20:34.892Z,55.70
2017-04-17T06:21:34.177Z,56.40
2017-04-17T06:22:33.408Z,56.90
2017-04-17T06:23:32.816Z,57.10
2017-04-17T06:24:32.277Z,57.30
2017-04-17T06:25:32.216Z,57.20
2017-04-17T06:26:31.454Z,57.40
2017-04-17T06:27:31.396Z,58.10
2017-04-17T06:28:30.608Z,58.50
2017-04-17T06:29:29.832Z,58.90
2017-04-17T06:30:29.077Z,59.00
2017-04-17T06:31:28.280Z,59.30
2017-04-17T06:32:27.490Z,59.60
2017-04-17T06:33:26.729Z,59.60
2017-04-17T06:34:25.949Z,59.50
2017-04-17T06:35:25.160Z,59.50
2017-04-17T06:36:24.624Z,59.20
2017-04-17T06:37:23.817Z,58.90
2017-04-17T06:38:23.030Z,58.70
2017-04-17T06:39:22.306Z,58.50
2017-04-17T06:40:21.660Z,58.50
2017-04-17T06:41:20.872Z,58.10
2017-04-17T06:42:20.396Z,58.30
2017-04-17T06:43:19.592Z,58.60
2017-04-17T06:44:18.789Z,58.90
2017-04-17T06:45:18.013Z,59.60
2017-04-17T06:46:17.234Z,59.70
2017-04-17T06:47:16.452Z,59.60
2017-04-17T06:49:15.437Z,59.80
2017-04-17T06:50:14.649Z,59.60
2017-04-17T06:51:13.864Z,59.80
2017-04-17T06:52:13.081Z,60.10
2017-04-17T06:53:12.300Z,60.10
2017-04-17T06:54:11.556Z,60.90
2017-04-17T06:55:10.778Z,61.30
2017-04-17T06:56:10.004Z,61.60
2017-04-17T06:57:09.225Z,62.10
2017-04-17T06:58:08.456Z,62.20
2017-04-17T06:59:07.720Z,62.70
2017-04-17T07:00:06.974Z,62.90
2017-04-17T07:01:06.230Z,63.40
2017-04-17T07:02:06.194Z,63.20
2017-04-17T07:03:05.416Z,63.50
2017-04-17T07:04:04.645Z,63.90
2017-04-17T07:05:03.896Z,64.30
2017-04-17T07:06:03.179Z,64.30
2017-04-17T07:07:02.397Z,64.60
2017-04-17T07:08:01.604Z,64.30
2017-04-17T07:09:00.864Z,64.30
2017-04-17T07:10:00.112Z,64.70
2017-04-17T07:10:59.329Z,65.20
2017-04-17T07:11:58.808Z,65.00
2017-04-17T07:12:58.049Z,65.80
2017-04-17T07:13:57.264Z,66.10
2017-04-17T07:14:56.493Z,64.70
2017-04-17T07:15:55.729Z,64.80
2017-04-17T07:16:54.950Z,64.20
2017-04-17T07:17:54.210Z,64.10
2017-04-17T07:18:53.428Z,64.10
2017-04-17T07:19:52.656Z,64.00
2017-04-17T07:20:52.649Z,64.00
2017-04-17T07:21:51.864Z,64.20
2017-04-17T07:22:51.076Z,64.20
2017-04-17T07:23:50.569Z,64.00
2017-04-17T07:24:49.790Z,64.00
2017-04-17T07:25:49.009Z,63.60
2017-04-17T07:26:48.992Z,63.40
2017-04-17T07:27:48.213Z,63.30
2017-04-17T07:28:48.170Z,62.90
2017-04-17T07:29:47.410Z,63.20
2017-04-17T07:30:46.640Z,63.40
2017-04-17T07:31:45.857Z,63.00
2017-04-17T07:32:45.079Z,63.10
2017-04-17T07:33:44.305Z,63.40
2017-04-17T07:34:43.521Z,63.40
2017-04-17T07:35:43.033Z,63.20
2017-04-17T07:36:42.237Z,63.30
2017-04-17T07:37:42.255Z,63.30
2017-04-17T07:38:41.472Z,64.10
2017-04-17T07:39:40.689Z,63.50
2017-04-17T07:40:39.918Z,63.70
2017-04-17T07:41:39.164Z,63.00
2017-04-17T07:42:38.422Z,63.40
2017-04-17T07:43:37.626Z,63.40
2017-04-17T07:44:36.837Z,63.60
2017-04-17T07:45:36.053Z,63.70
2017-04-17T07:46:36.055Z,64.00
2017-04-17T07:47:36.070Z,63.80
2017-04-17T07:48:36.026Z,64.20
2017-04-17T07:49:35.265Z,65.80
2017-04-17T07:50:34.500Z,65.40
2017-04-17T07:51:33.725Z,66.00
2017-04-17T07:52:32.948Z,65.90
2017-04-17T07:53:31.673Z,65.90
2017-04-17T07:54:30.905Z,65.80
2017-04-17T07:55:30.141Z,68.90
2017-04-17T07:56:29.395Z,69.00
2017-04-17T07:57:28.616Z,68.30
2017-04-17T07:58:27.841Z,66.80
2017-04-17T07:59:27.113Z,70.00
2017-04-17T08:00:26.353Z,70.60
2017-04-17T08:01:25.572Z,71.30
2017-04-17T08:02:24.795Z,70.60
2017-04-17T08:03:24.016Z,70.00
2017-04-17T08:04:23.246Z,69.50
2017-04-17T08:05:22.750Z,67.20
2017-04-17T08:06:21.956Z,71.30
2017-04-17T08:07:21.177Z,70.90
2017-04-17T08:08:20.400Z,71.20
2017-04-17T08:09:19.625Z,70.50
2017-04-17T08:10:18.910Z,71.60
2017-04-17T08:11:18.180Z,69.60
2017-04-17T08:12:17.443Z,70.50
2017-04-17T08:13:16.669Z,69.40
2017-04-17T08:14:15.884Z,71.50
2017-04-17T08:15:15.126Z,72.10
2017-04-17T08:16:14.333Z,69.60
2017-04-17T08:17:13.832Z,73.80
2017-04-17T08:18:13.054Z,70.70
2017-04-17T08:19:13.045Z,70.10
2017-04-17T08:20:12.274Z,70.30
2017-04-17T08:21:11.477Z,69.50
2017-04-17T08:22:10.693Z,71.20
2017-04-17T08:23:09.982Z,69.20
2017-04-17T08:24:09.196Z,70.50
2017-04-17T08:25:08.437Z,70.50
2017-04-17T08:26:07.705Z,71.80
2017-04-17T08:27:06.938Z,73.40
2017-04-17T08:28:06.160Z,73.60
2017-04-17T08:29:06.177Z,74.40
2017-04-17T08:30:05.456Z,75.70
2017-04-17T08:31:05.440Z,75.00
2017-04-17T08:32:04.652Z,74.00
2017-04-17T08:33:04.625Z,74.30
2017-04-17T08:34:03.876Z,71.50
2017-04-17T08:35:03.152Z,73.20
2017-04-17T08:36:03.121Z,74.10
2017-04-17T08:37:02.337Z,73.70
2017-04-17T08:38:02.306Z,74.00
2017-04-17T08:39:01.512Z,75.00
2017-04-17T08:40:00.737Z,74.20
2017-04-17T08:41:00.293Z,76.20
2017-04-17T08:41:59.508Z,75.10
2017-04-17T08:42:59.465Z,75.80
2017-04-17T08:43:58.688Z,75.20
2017-04-17T08:44:57.933Z,74.20
2017-04-17T08:45:57.188Z,75.70
2017-04-17T08:46:57.169Z,74.70
2017-04-17T08:47:56.838Z,75.50
2017-04-17T08:48:56.069Z,74.90
2017-04-17T08:49:56.524Z,76.20
2017-04-17T08:50:55.764Z,73.80
2017-04-17T08:51:54.991Z,74.30
2017-04-17T08:52:54.543Z,75.30
2017-04-17T08:53:53.769Z,74.60
2017-04-17T08:54:52.225Z,74.60
2017-04-17T08:55:52.192Z,76.80
2017-04-17T08:56:51.416Z,75.30
2017-04-17T08:57:51.398Z,76.80
2017-04-17T08:58:50.655Z,78.70
2017-04-17T08:59:49.873Z,75.00
2017-04-17T09:00:49.098Z,77.00
2017-04-17T09:01:49.087Z,77.90
2017-04-17T09:02:48.291Z,76.50
2017-04-17T09:03:48.256Z,77.50
2017-04-17T09:04:47.765Z,76.00
2017-04-17T09:05:47.013Z,76.60
2017-04-17T09:06:46.252Z,74.90
2017-04-17T09:07:45.565Z,76.90
2017-04-17T09:08:45.548Z,76.70
2017-04-17T09:09:44.816Z,76.80
2017-04-17T09:10:44.069Z,76.10
2017-04-17T09:11:43.321Z,76.80
2017-04-17T09:12:42.557Z,76.90
2017-04-17T09:13:41.818Z,77.20
2017-04-17T09:14:41.776Z,75.40
2017-04-17T09:15:41.008Z,77.30
2017-04-17T09:16:40.484Z,79.40
2017-04-17T09:17:39.704Z,76.60
2017-04-17T09:18:39.670Z,77.30
2017-04-17T09:19:38.888Z,77.60
2017-04-17T09:20:38.144Z,78.10
2017-04-17T09:21:37.368Z,77.60
2017-04-17T09:22:36.969Z,77.30
2017-04-17T09:23:36.933Z,75.60
2017-04-17T09:24:36.153Z,78.10
2017-04-17T09:25:35.367Z,77.00
2017-04-17T09:26:34.581Z,78.00
2017-04-17T09:27:33.801Z,78.20
2017-04-17T09:28:33.074Z,76.60
2017-04-17T09:29:32.285Z,77.80
2017-04-17T09:30:31.502Z,78.70
2017-04-17T09:31:30.716Z,76.20
2017-04-17T09:32:29.934Z,78.20
2017-04-17T09:33:29.142Z,79.40
2017-04-17T09:34:28.633Z,79.70
2017-04-17T09:35:28.062Z,80.20
2017-04-17T09:36:27.403Z,81.90
2017-04-17T09:37:26.612Z,79.60
2017-04-17T09:38:25.834Z,78.20
2017-04-17T09:39:25.086Z,79.50
2017-04-17T09:40:24.361Z,80.60
2017-04-17T09:41:23.597Z,79.40
2017-04-17T09:42:23.640Z,76.10
2017-04-17T09:43:22.865Z,78.10
2017-04-17T09:44:22.086Z,80.20
2017-04-17T09:45:21.305Z,79.70
2017-04-17T09:46:20.841Z,78.90
2017-04-17T09:47:20.073Z,79.50
2017-04-17T09:48:19.322Z,79.00
2017-04-17T09:49:18.549Z,80.40
2017-04-17T09:50:18.074Z,78.90
2017-04-17T09:51:17.357Z,78.30
2017-04-17T09:52:16.624Z,80.60
2017-04-17T09:53:15.848Z,75.30
2017-04-17T09:54:15.057Z,76.20
2017-04-17T09:55:14.304Z,78.00
2017-04-17T09:56:13.552Z,78.10
2017-04-17T09:57:12.773Z,79.80
2017-04-17T09:58:12.025Z,80.00
2017-04-17T09:59:11.385Z,78.40
2017-04-17T10:00:10.776Z,77.80
2017-04-17T10:01:10.001Z,76.70
2017-04-17T10:02:09.225Z,78.00
2017-04-17T10:03:08.458Z,78.20
2017-04-17T10:04:07.707Z,78.70
2017-04-17T10:05:06.934Z,78.90
2017-04-17T10:06:06.191Z,78.40
2017-04-17T10:07:05.591Z,79.20
2017-04-17T10:08:04.877Z,79.80
2017-04-17T10:09:04.365Z,81.40
2017-04-17T10:10:03.815Z,81.70
2017-04-17T10:11:03.041Z,80.40
2017-04-17T10:12:02.256Z,80.60
2017-04-17T10:13:01.460Z,79.10
2017-04-17T10:14:00.668Z,81.10
2017-04-17T10:14:59.892Z,80.50
2017-04-17T10:15:59.108Z,81.50
2017-04-17T10:16:58.337Z,81.10
2017-04-17T10:17:57.541Z,80.90
2017-04-17T10:18:56.794Z,78.60
2017-04-17T10:19:56.799Z,80.60
2017-04-17T10:20:56.025Z,81.00
2017-04-17T10:21:55.509Z,82.10
2017-04-17T10:22:54.725Z,81.20
2017-04-17T10:23:54.715Z,79.50
2017-04-17T10:24:53.946Z,80.10
2017-04-17T10:25:53.183Z,80.80
2017-04-17T10:26:52.406Z,79.20
2017-04-17T10:27:51.646Z,80.90
2017-04-17T10:28:50.873Z,81.70
2017-04-17T10:29:50.911Z,82.70
2017-04-17T10:30:50.137Z,82.60
2017-04-17T10:31:49.357Z,83.90
2017-04-17T10:32:48.580Z,84.00
2017-04-17T10:33:47.834Z,83.90
2017-04-17T10:34:47.816Z,84.40
2017-04-17T10:35:47.048Z,84.40
2017-04-17T10:36:46.272Z,84.40
2017-04-17T10:37:45.544Z,84.40
2017-04-17T10:38:44.836Z,84.60
2017-04-17T10:39:44.381Z,81.70
2017-04-17T10:40:43.654Z,82.90
2017-04-17T10:41:42.868Z,84.20
2017-04-17T10:42:42.094Z,82.70
2017-04-17T10:43:41.332Z,81.60
2017-04-17T10:44:40.568Z,82.60
2017-04-17T10:45:39.828Z,82.50
2017-04-17T10:46:39.056Z,83.30
2017-04-17T10:47:38.282Z,82.70
2017-04-17T10:48:37.501Z,82.30
2017-04-17T10:49:37.466Z,83.40
2017-04-17T10:50:36.690Z,84.10
2017-04-17T10:51:36.264Z,84.50
2017-04-17T10:52:35.481Z,84.50
2017-04-17T10:53:34.763Z,84.60
2017-04-17T10:54:33.976Z,84.60
2017-04-17T10:55:33.963Z,84.80
2017-04-17T10:56:33.161Z,84.50
2017-04-17T10:57:33.144Z,85.40
2017-04-17T10:58:32.365Z,85.80
2017-04-17T10:59:32.336Z,86.50
2017-04-17T11:00:31.615Z,85.00
2017-04-17T11:01:30.888Z,84.80
2017-04-17T11:02:30.123Z,84.80
2017-04-17T11:03:29.368Z,84.90
2017-04-17T11:04:28.580Z,83.60
2017-04-17T11:05:27.812Z,84.90
2017-04-17T11:06:27.344Z,83.90
2017-04-17T11:07:26.562Z,82.80
2017-04-17T11:08:25.783Z,82.90
2017-04-17T11:09:25.752Z,82.60
2017-04-17T11:10:24.970Z,83.60
2017-04-17T11:11:24.213Z,82.40
2017-04-17T11:12:23.479Z,83.40
2017-04-17T11:13:22.774Z,82.00
2017-04-17T11:14:21.982Z,81.90
2017-04-17T11:15:21.486Z,80.60
2017-04-17T11:16:20.732Z,82.40
2017-04-17T11:17:19.985Z,81.50
2017-04-17T11:18:19.221Z,78.70
2017-04-17T11:19:18.504Z,77.70
2017-04-17T11:20:17.785Z,78.00
2017-04-17T11:21:17.029Z,78.90
2017-04-17T11:22:16.229Z,80.20
2017-04-17T11:23:15.482Z,80.60
2017-04-17T11:24:14.749Z,77.50
2017-04-17T11:25:13.976Z,78.30
2017-04-17T11:26:13.192Z,80.20
2017-04-17T11:27:12.983Z,80.30
2017-04-17T11:28:12.194Z,81.70
2017-04-17T11:29:11.413Z,79.00
2017-04-17T11:30:10.635Z,79.70
2017-04-17T11:31:10.641Z,80.80
2017-04-17T11:32:09.857Z,80.70
2017-04-17T11:40:02.241Z,81.70
2017-04-17T11:41:01.466Z,80.90
2017-04-17T11:42:00.749Z,80.40
2017-04-17T11:42:59.992Z,81.50
2017-04-17T11:43:59.209Z,80.30
2017-04-17T11:44:58.444Z,81.60
2017-04-17T11:45:57.977Z,81.10
2017-04-17T11:46:57.221Z,82.70
2017-04-17T11:47:56.444Z,82.10
2017-04-17T11:48:55.699Z,82.70
2017-04-17T11:49:54.945Z,81.30
2017-04-17T11:50:54.172Z,81.90
2017-04-17T11:51:53.454Z,83.30
2017-04-17T11:52:52.718Z,83.10
2017-04-17T11:53:51.979Z,82.40
2017-04-17T11:54:51.288Z,84.40
2017-04-17T11:55:50.558Z,84.70
2017-04-17T11:56:49.907Z,83.80
2017-04-17T11:57:49.456Z,83.10
2017-04-17T11:58:48.690Z,82.70
2017-04-17T11:59:47.974Z,83.30
2017-04-17T12:00:47.253Z,82.70
2017-04-17T12:01:46.472Z,83.50
2017-04-17T12:02:45.704Z,81.40
2017-04-17T12:03:44.997Z,82.80
2017-04-17T12:04:44.217Z,82.50
2017-04-17T12:05:43.482Z,82.90
2017-04-17T12:06:42.747Z,82.40
2017-04-17T12:07:42.024Z,80.40
2017-04-17T12:08:41.345Z,82.50
2017-04-17T12:09:40.951Z,81.70
2017-04-17T12:10:40.250Z,82.40
2017-04-17T12:11:40.264Z,82.90
2017-04-17T12:12:39.552Z,83.80
2017-04-17T12:13:38.819Z,85.00
2017-04-17T12:14:38.041Z,85.00
2017-04-17T12:15:38.053Z,84.90
2017-04-17T12:16:37.319Z,84.90
2017-04-17T12:17:36.632Z,84.90
2017-04-17T12:18:36.639Z,84.00
2017-04-17T12:19:35.871Z,86.10
2017-04-17T12:20:35.121Z,86.80
2017-04-17T12:21:34.613Z,85.00
2017-04-17T12:22:34.670Z,85.00
2017-04-17T12:23:33.917Z,84.30
2017-04-17T12:24:33.160Z,84.30
2017-04-17T12:25:32.412Z,82.70
2017-04-17T12:26:31.628Z,82.40
2017-04-17T12:27:30.941Z,82.50
2017-04-17T12:28:30.173Z,82.70
2017-04-17T12:29:29.420Z,82.20
2017-04-17T12:30:28.648Z,84.10
2017-04-17T12:31:27.883Z,82.50
2017-04-17T12:32:27.113Z,84.50
2017-04-17T12:33:27.145Z,82.70
2017-04-17T12:34:26.401Z,82.60
2017-04-17T12:35:25.665Z,83.10
2017-04-17T12:36:24.906Z,84.10
2017-04-17T12:37:24.188Z,84.40
2017-04-17T12:38:23.461Z,82.60
2017-04-17T12:39:22.783Z,82.30
2017-04-17T12:40:22.152Z,81.30
2017-04-17T12:41:21.437Z,82.40
2017-04-17T12:42:20.653Z,82.00
2017-04-17T12:43:20.176Z,82.20
2017-04-17T12:44:19.429Z,82.50
2017-04-17T12:45:18.702Z,83.20
2017-04-17T12:46:17.918Z,82.50
2017-04-17T12:47:17.153Z,83.20
2017-04-17T12:48:16.408Z,82.00
2017-04-17T12:49:15.654Z,83.00
2017-04-17T12:50:14.876Z,85.20
2017-04-17T12:51:14.142Z,82.90
2017-04-17T12:52:14.611Z,83.90